Landels-Hill Big Creek Reserve Entrance, California Weather observations

Data are for 10 minute period ending at time listed.
 Day   Time   Solar   Ave.   Ave.  Ave.  Vector  Max.   Baro.   Total    
  of    of     Rad.   Air    Rel.  Wind   Wind   Wind  Press.  Precip.   
Year   Day            Temp.  Hum.  Speed  Dir.   Gust                    
2017   (PST)  Kw/m2    F      %     mph   deg.    mph    mb.     in.     
-------------------------------------------------------------------------
  18    0:40   0.00   45.6    77    3.0    54     5.3   1016.3    0.00 
  18    0:50   0.00   46.4    74    1.7    39     4.2   1016.2    0.00 
  18    1:00   0.00   45.9    76    2.0    52     4.3   1016.2    0.00 
  18    1:10   0.00   45.8    77    2.7    49     7.1   1015.8    0.00 
  18    1:20   0.00   46.2    74    2.5    45     5.3   1015.5    0.00 
  18    1:30   0.00   46.9    70    2.4    49     4.9   1015.4    0.00 
  18    1:40   0.00   46.9    71    1.7    48     3.8   1015.5    0.00 
  18    1:50   0.00   46.5    74    2.1    40     4.1   1015.7    0.00 
  18    2:00   0.00   46.7    75    1.5     5     3.1   1016.6    0.00 
  18    2:10   0.00   46.9    78    1.7     8     3.6   1016.9    0.00 
  18    2:20   0.00   46.7    83    1.8    20     4.8   1016.8    0.00 
  18    2:30   0.00   46.9    83    1.2    19     2.9   1016.7    0.00 
  18    2:40   0.00   46.9    82    2.1    21     4.0   1016.8    0.00 
  18    2:50   0.00   46.5    84    2.0    28     3.4   1017.3    0.00 
  18    3:00   0.00   46.6    84    2.0    26     3.9   1017.6    0.00 
  18    3:10   0.00   46.9    85    2.6    21     5.1   1017.1    0.00 
  18    3:20   0.00   47.7    83    2.7    41     6.3   1016.7    0.00 
  18    3:30   0.00   47.7    82    2.6    28     5.2   1016.4    0.00 
  18    3:40   0.00   47.0    84    2.0    27     4.5   1016.7    0.00 
  18    3:50   0.00   46.9    85    2.4    38     5.0   1016.8    0.00 
  18    4:00   0.00   47.1    86    2.8    33     5.6   1016.6    0.00 
  18    4:10   0.00   47.2    86    3.7    10     6.9   1016.6    0.00 
  18    4:20   0.00   47.3    86    2.5    40     5.5   1016.7    0.00 
  18    4:30   0.00   48.0    83    2.0    56     5.0   1016.6    0.00 
  18    4:40   0.00   47.9    83    2.5    40     6.1   1016.4    0.00 
  18    4:50   0.00   48.3    82    2.8    19     6.5   1016.5    0.00 
  18    5:00   0.00   47.9    83    2.7    38     5.8   1016.6    0.00 
  18    5:10   0.00   47.9    83    2.7    32     6.4   1016.7    0.00 
  18    5:20   0.00   48.2    82    1.9    11     4.5   1016.5    0.00 
  18    5:30   0.00   47.9    84    3.3    17     6.8   1016.3    0.00 
  18    5:40   0.00   48.3    83    2.5    38     4.5   1016.3    0.00 
  18    5:50   0.00   48.6    81    1.5    33     3.7   1016.6    0.00 
  18    6:00   0.00   48.3    84    1.7    34     5.0   1016.6    0.00 
  18    6:10   0.00   48.6    82    2.6    34     6.4   1016.5    0.00 
  18    6:20   0.00   48.7    82    2.8    31     5.8   1016.4    0.00 
  18    6:30   0.00   48.7    82    3.1    30     6.9   1016.1    0.00 
  18    6:40   0.00   49.2    81    2.0    39     5.3   1016.5    0.00 
  18    6:50   0.00   49.4    81    1.2    54     3.6   1016.4    0.00 
  18    7:00   0.00   49.1    83    1.7    45     3.6   1016.8    0.00 
  18    7:10   0.00   49.7    83    1.3     3     4.2   1016.9    0.00 
  18    7:20   0.00   50.1    84    1.6   356     3.4   1016.6    0.00 
  18    7:30   0.01   49.4    85    1.7     3     4.3   1016.6    0.00 
  18    7:40   0.01   51.0    86    2.6   290     8.3   1016.3    0.00 
  18    7:50   0.01   53.3    81    2.8   287     8.6   1016.1    0.00 
  18    8:00   0.01   53.7    78    2.4   278    10.2   1015.8    0.00 
  18    8:10   0.01   53.3    78    3.3   281     9.2   1015.4    0.00 
  18    8:20   0.02   53.8    77    2.2   286     8.3   1015.4    0.00 
  18    8:30   0.04   53.3    78    2.7   297     7.1   1015.4    0.00 
  18    8:40   0.04   54.0    74    2.5   289     7.1   1015.4    0.00 
  18    8:50   0.08   54.5    73    2.7   284     7.1   1015.2    0.00 
  18    9:00   0.07   53.8    75    2.6   278     8.3   1015.0    0.00 
  18    9:10   0.09   55.0    69    3.9   273    13.1   1014.9    0.00 
  18    9:20   0.09   55.5    68    4.1   288    12.6   1015.1    0.00 
  18    9:30   0.07   55.4    69    2.6   299     7.9   1015.4    0.00 
  18    9:40   0.06   55.4    69    3.5   290     9.8   1015.3    0.00 
  18    9:50   0.06   55.6    67    5.5   271    14.2   1014.8    0.00 
  18   10:00   0.06   56.0    65    6.3   272    18.6   1014.6    0.00 
  18   10:10   0.07   56.0    66    4.2   282    10.7   1014.4    0.00 
  18   10:20   0.04   56.0    66    4.9   288    11.0   1014.6    0.00 
  18   10:30   0.05   56.3    65    3.5   298    11.5   1015.1    0.00 
  18   10:40   0.04   55.5    72    3.5   325     8.2   1015.6    0.00 
  18   10:50   0.03   54.6    76    2.9   332     9.1   1016.5    0.00 
  18   11:00   0.02   54.2    80    2.3   341     8.6   1017.3    0.01 
  18   11:10   0.04   53.7    84    4.4   272    11.1   1017.1    0.02 
  18   11:20   0.05   53.2    86    4.8   278    13.3   1016.6    0.02 
  18   11:30   0.07   53.2    84    5.4   276    13.3   1016.6    0.01 
  18   11:40   0.04   53.2    84    2.4   308    10.3   1017.0    0.01 
  18   11:50   0.04   53.2    84    3.6   276     9.0   1017.1    0.00 
  18   12:00   0.04   53.1    85    4.3   270     9.3   1017.0    0.01 
  18   12:10   0.04   53.1    86    3.6   269     8.8   1016.6    0.01 
  18   12:20   0.03   53.1    86    4.6   270    13.8   1016.4    0.02 
  18   12:30   0.03   53.0    86    3.6   269     9.3   1016.0    0.01 
  18   12:40   0.05   53.0    85    4.5   269    10.4   1015.7    0.02 
  18   12:50   0.04   53.2    84    4.2   275    10.8   1015.8    0.01 
  18   13:00   0.04   53.2    85    4.5   265    14.5   1015.8    0.02 
  18   13:10   0.05   53.1    86    4.5   270    17.0   1015.1    0.01 
  18   13:20   0.04   53.2    86    5.3   275    16.7   1014.4    0.01 
  18   13:30   0.04   53.2    87    3.6   286    11.6   1014.4    0.02 
  18   13:40   0.03   53.0    89    4.5   279    13.4   1014.5    0.01 
  18   13:50   0.04   53.0    88    6.7   273    19.2   1014.4    0.02 
  18   14:00   0.04   53.0    88    5.6   276    16.4   1014.1    0.01 
  18   14:10   0.04   53.1    88    7.1   274    14.8   1014.1    0.01 
  18   14:20   0.03   53.1    88    5.7   274    15.2   1013.9    0.02 
  18   14:30   0.03   53.1    88    5.7   272    15.5   1013.9    0.01 
  18   14:40   0.05   53.1    88    5.6   270    14.0   1013.4    0.02 
  18   14:50   0.04   53.2    87    5.4   268    11.7   1013.0    0.01 
  18   15:00   0.05   53.3    87    4.3   275    12.3   1012.5    0.01 
  18   15:10   0.04   53.5    86    5.4   267    13.2   1012.1    0.00 
  18   15:20   0.03   53.6    85    7.6   278    20.0   1011.6    0.00 
  18   15:30   0.02   53.8    85    6.9   269    14.5   1011.3    0.00 
  18   15:40   0.03   53.8    85    6.5   271    20.5   1010.7    0.01 
  18   15:50   0.02   53.8    86    7.5   273    18.8   1010.6    0.00 
  18   16:00   0.01   53.9    84    7.5   277    19.6   1010.7    0.00 
  18   16:10   0.01   53.9    84    6.7   271    14.9   1010.7    0.01 
  18   16:20   0.01   53.8    85    6.9   268    14.8   1010.4    0.01 
  18   16:30   0.01   53.8    84    6.6   264    19.4   1010.1    0.01 
  18   16:40   0.01   53.7    84    6.1   274    13.5   1010.0    0.00 
  18   16:50   0.01   53.6    84    6.3   270    15.4   1010.0    0.01 
  18   17:00   0.00   53.5    86    5.5   276    19.0   1010.1    0.01 
  18   17:10   0.00   53.3    87    5.5   278    16.5   1009.8    0.01 
  18   17:20   0.00   53.4    84    8.3   266    18.6   1009.2    0.00 
  18   17:30   0.00   53.4    83    4.9   269    14.6   1009.1    0.01 
  18   17:40   0.00   53.4    83    5.7   278    20.3   1009.0    0.00 
  18   17:50   0.00   53.5    83    3.3   291    13.4   1008.9    0.01 
  18   18:00   0.00   53.2    84    3.7   279    16.5   1008.8    0.00 
  18   18:10   0.00   53.3    82    4.3   283    12.7   1008.8    0.00 
  18   18:20   0.00   53.7    79    5.7   271    18.6   1009.2    0.00 
  18   18:30   0.00   53.6    80    5.4   277    18.6   1009.0    0.01 
  18   18:40   0.00   53.4    80   10.7   268    26.7   1008.5    0.01 
  18   18:50   0.00   53.2    81    6.8   270    18.6   1008.4    0.00 
  18   19:00   0.00   53.3    80    5.7   276    14.2   1008.3    0.00 
  18   19:10   0.00   53.5    80    6.6   263    15.1   1008.4    0.00 
  18   19:20   0.00   53.4    81    6.6   266    15.6   1008.4    0.01 
  18   19:30   0.00   53.1    83    8.3   271    20.8   1008.5    0.03 
  18   19:40   0.00   52.8    85    6.7   272    21.6   1008.9    0.02 
  18   19:50   0.00   52.7    85    9.3   269    22.4   1009.0    0.01 
  18   20:00   0.00   53.0    84   10.9   270    22.9   1009.0    0.01 
  18   20:10   0.00   53.0    84    9.5   268    21.1   1009.2    0.01 
  18   20:20   0.00   52.8    86    8.2   270    22.4   1009.5    0.03 
  18   20:30   0.00   52.6    88    7.2   274    22.4   1009.4    0.03 
  18   20:40   0.00   52.8    88    8.8   271    23.5   1009.5    0.05 
  18   20:50   0.00   52.9    89   10.5   273    20.5   1009.2    0.05 
  18   21:00   0.00   53.1    88    7.6   274    21.3   1009.2    0.01 
  18   21:10   0.00   53.2    88    6.8   269    20.2   1009.0    0.03 
  18   21:20   0.00   53.5    88    7.7   274    21.8   1008.9    0.02 
  18   21:30   0.00   53.4    89    8.0   279    22.1   1008.9    0.02 
  18   21:40   0.00   53.5    90    9.0   268    23.5   1009.2    0.00 
  18   21:50   0.00   53.6    92    6.3   296    15.5   1009.0    0.01 
  18   22:00   0.00   53.8    93    5.8   305    19.2   1008.7    0.01 
  18   22:10   0.00   53.9    93    3.2   337     9.9   1009.0    0.01 
  18   22:20   0.00   54.0    93    4.2   327    15.6   1008.6    0.01 
  18   22:30   0.00   54.2    94    5.0   322    11.1   1008.9    0.00 
  18   22:40   0.00   54.4    94    5.2   357    14.4   1009.1    0.01 
  18   22:50   0.00   54.4    93    6.5   295    18.1   1008.8    0.00 
  18   23:00   0.00   54.3    93    6.3   284    20.6   1008.6    0.01 
  18   23:10   0.00   54.3    92    7.2   279    21.0   1008.6    0.00 
  18   23:20   0.00   54.6    92    4.4   299    12.3   1008.9    0.00 
  18   23:30   0.00   54.6    92    3.9   324     9.6   1008.8    0.00 
  18   23:40   0.00   54.7    93    4.1   322    14.6   1008.8    0.00 
  18   23:50   0.00   54.7    93    4.2   319    13.4   1008.7    0.00 
  19    0:00   0.00   54.7    93    3.9   317    12.1   1008.8    0.00 
  19    0:10   0.00   54.7    93    3.4     2     8.0   1008.8    0.00 
  19    0:20   0.00   54.8    94    3.6   259    11.3   1009.0    0.00 
  19    0:30   0.00   54.9    94    3.0   114     7.7   1009.2    0.00 

Return to Big Creek Reserve Entrance graphs page.


Western Regional Climate Center,wrcc@dri.edu